Time;durP1;ratioP1;P1;durP2;ratioP2;P2;SDS_P1;SDS_P2;PMS_P1;PMS_P2;Temp;Humidity;BMP_temperature;BMP_pressure;BME280_temperature;BME280_humidity;BME280_pressure;Samples;Min_cycle;Max_cycle;Signal;HPM_P1;HPM_P2
2022/11/26 00:00:43;;;;;;;46.33;15.63;;;7.10;99.90;;;;;;5014517;28;20400;-72
2022/11/26 00:03:10;;;;;;;40.92;14.00;;;7.10;99.90;;;;;;5014502;28;20393;-73
2022/11/26 00:05:37;;;;;;;39.95;15.32;;;7.10;99.90;;;;;;5014247;28;20460;-73
2022/11/26 00:08:03;;;;;;;50.72;15.27;;;7.10;99.90;;;;;;5013989;28;20758;-72
2022/11/26 00:10:34;;;;;;;39.85;15.07;;;7.10;99.90;;;;;;5013980;28;20527;-72
2022/11/26 00:12:59;;;;;;;40.40;16.52;;;7.00;99.90;;;;;;5013124;28;20392;-72
2022/11/26 00:15:28;;;;;;;66.70;15.80;;;7.00;99.90;;;;;;5012663;28;20385;-73
2022/11/26 00:17:54;;;;;;;62.97;17.13;;;7.00;99.90;;;;;;5012432;28;20458;-73
2022/11/26 00:20:22;;;;;;;50.40;15.03;;;6.90;99.90;;;;;;5016887;28;20941;-73
2022/11/26 00:22:50;;;;;;;41.70;15.38;;;7.10;99.90;;;;;;5020493;28;20583;-72
2022/11/26 00:25:19;;;;;;;56.78;17.80;;;7.00;99.90;;;;;;5020383;28;20393;-73
2022/11/26 00:27:45;;;;;;;49.72;16.90;;;7.10;99.90;;;;;;5020494;28;20492;-74
2022/11/26 00:30:24;;;;;;;47.47;16.38;;;7.10;99.90;;;;;;5021531;28;20392;-73
2022/11/26 00:32:50;;;;;;;54.97;16.30;;;7.10;99.90;;;;;;5021550;28;20385;-73
2022/11/26 00:35:16;;;;;;;42.42;16.20;;;7.10;99.90;;;;;;5023727;28;20393;-72
2022/11/26 00:37:47;;;;;;;50.95;15.50;;;7.00;99.90;;;;;;5024107;28;20400;-72
2022/11/26 00:40:23;;;;;;;46.93;17.60;;;6.90;99.90;;;;;;5023082;28;20921;-72
2022/11/26 00:42:50;;;;;;;46.38;16.45;;;7.00;99.90;;;;;;5021560;28;20424;-72
2022/11/26 00:45:24;;;;;;;41.85;16.85;;;6.90;99.90;;;;;;5020473;28;20408;-72
2022/11/26 00:47:50;;;;;;;41.10;15.20;;;6.80;99.90;;;;;;5022173;28;20400;-73
2022/11/26 00:50:22;;;;;;;42.63;16.52;;;6.80;99.90;;;;;;5021217;28;20400;-71
2022/11/26 00:52:53;;;;;;;47.88;17.60;;;7.00;99.90;;;;;;5019332;28;20400;-72
2022/11/26 00:55:33;;;;;;;45.60;16.52;;;7.00;99.90;;;;;;5022967;28;20397;-72
2022/11/26 00:57:59;;;;;;;52.55;16.40;;;7.00;99.90;;;;;;5022131;28;20474;-73
2022/11/26 01:00:27;;;;;;;50.22;17.30;;;7.00;99.90;;;;;;5020875;28;20395;-73
2022/11/26 01:02:53;;;;;;;46.92;15.65;;;7.20;99.90;;;;;;5015649;28;20404;-73
2022/11/26 01:05:20;;;;;;;44.03;17.00;;;7.30;99.90;;;;;;5010497;28;20384;-72
2022/11/26 01:07:46;;;;;;;46.17;15.38;;;7.40;99.90;;;;;;5011800;28;20389;-72
2022/11/26 01:10:24;;;;;;;40.13;15.85;;;7.60;99.90;;;;;;5011434;28;20397;-72
2022/11/26 01:12:51;;;;;;;43.75;15.27;;;7.60;99.90;;;;;;5011607;28;20927;-72
2022/11/26 01:15:19;;;;;;;42.83;15.20;;;7.70;99.90;;;;;;5011707;28;20397;-72
2022/11/26 01:17:44;;;;;;;45.97;15.00;;;7.70;99.90;;;;;;5011819;28;20411;-74
2022/11/26 01:20:23;;;;;;;33.97;14.17;;;7.80;99.90;;;;;;5010201;28;20393;-72
2022/11/26 01:22:50;;;;;;;42.38;14.98;;;7.90;99.90;;;;;;5010212;28;20396;-73
2022/11/26 01:25:16;;;;;;;55.85;14.68;;;7.90;99.90;;;;;;5012041;28;20396;-72
2022/11/26 01:27:42;;;;;;;54.70;14.80;;;7.80;99.90;;;;;;5015498;28;20448;-72
2022/11/26 01:30:23;;;;;;;44.90;14.80;;;7.90;99.90;;;;;;5014600;28;20420;-72
2022/11/26 01:32:50;;;;;;;35.80;13.32;;;7.90;99.90;;;;;;5015401;28;20392;-72
2022/11/26 01:35:17;;;;;;;47.75;14.63;;;8.10;99.90;;;;;;5016319;28;20385;-73
2022/11/26 01:37:43;;;;;;;35.85;13.65;;;8.10;99.90;;;;;;5015870;28;20745;-74
2022/11/26 01:40:24;;;;;;;33.67;14.10;;;8.10;99.90;;;;;;5018575;28;20411;-72
2022/11/26 01:42:54;;;;;;;31.17;13.48;;;8.00;99.90;;;;;;5026699;28;20463;-72
2022/11/26 01:45:22;;;;;;;43.50;14.90;;;7.90;99.90;;;;;;5032246;28;20778;-73
2022/11/26 01:47:48;;;;;;;42.58;15.55;;;7.70;99.90;;;;;;5027178;28;20416;-72
2022/11/26 01:50:57;;;;;;;43.95;15.35;;;7.70;99.90;;;;;;5021793;28;20415;-73
2022/11/26 01:53:28;;;;;;;41.58;15.07;;;7.50;99.90;;;;;;5009208;28;20417;-73
2022/11/26 01:55:58;;;;;;;37.65;13.40;;;7.40;99.90;;;;;;5015165;28;20931;-73
2022/11/26 01:58:53;;;;;;;44.30;15.60;;;7.50;99.90;;;;;;5015074;28;20838;-72
2022/11/26 02:01:19;;;;;;;47.15;15.70;;;7.40;99.90;;;;;;5009070;28;20415;-73
2022/11/26 02:03:57;;;;;;;44.22;15.00;;;7.30;99.90;;;;;;5015387;28;20385;-73
2022/11/26 02:06:28;;;;;;;39.30;13.45;;;7.30;99.90;;;;;;5014968;28;20664;-73
2022/11/26 02:08:55;;;;;;;43.30;16.88;;;7.00;99.90;;;;;;5015288;28;20380;-73
2022/11/26 02:11:22;;;;;;;40.22;15.50;;;6.80;99.90;;;;;;5014724;28;20467;-72
2022/11/26 02:13:53;;;;;;;50.72;16.92;;;6.70;99.90;;;;;;5019144;28;20389;-73
2022/11/26 02:16:26;;;;;;;46.53;15.48;;;6.60;99.90;;;;;;5019489;28;20381;-73
2022/11/26 02:19:11;;;;;;;39.83;15.65;;;6.60;99.90;;;;;;5018951;28;20451;-73
2022/11/26 02:21:38;;;;;;;51.97;15.88;;;6.60;99.90;;;;;;5016759;28;20425;-74
2022/11/26 02:24:48;;;;;;;42.35;15.60;;;6.60;99.90;;;;;;5016732;28;20451;-73
2022/11/26 02:27:41;;;;;;;41.00;16.73;;;6.40;99.90;;;;;;4993502;28;20406;-72
2022/11/26 02:30:12;;;;;;;45.35;16.42;;;6.30;99.90;;;;;;4992954;28;20394;-72
2022/11/26 02:32:59;;;;;;;46.80;16.90;;;6.30;99.90;;;;;;5008864;28;20515;-73
2022/11/26 02:35:33;;;;;;;45.30;15.90;;;6.40;99.90;;;;;;5013334;28;20397;-73
2022/11/26 02:38:08;;;;;;;50.65;15.57;;;6.30;99.90;;;;;;5014099;28;20417;-72
2022/11/26 02:40:34;;;;;;;51.15;16.48;;;6.20;99.90;;;;;;5014222;28;20402;-73
2022/11/26 02:43:00;;;;;;;47.33;17.08;;;6.20;99.90;;;;;;5013836;28;20762;-72
2022/11/26 02:45:36;;;;;;;49.00;17.27;;;6.10;99.90;;;;;;5014022;28;20889;-73
2022/11/26 02:48:05;;;;;;;45.88;16.88;;;6.10;99.90;;;;;;5018446;28;20748;-72
2022/11/26 02:50:44;;;;;;;45.05;16.60;;;6.10;99.90;;;;;;5030738;23;20526;-74
2022/11/26 02:53:12;;;;;;;44.90;17.15;;;6.10;99.90;;;;;;5011580;28;20387;-75
2022/11/26 02:55:44;;;;;;;54.42;17.60;;;6.10;99.90;;;;;;5021705;28;20938;-75
2022/11/26 02:58:09;;;;;;;43.13;16.75;;;6.10;99.90;;;;;;5034543;28;20395;-74
2022/11/26 03:00:39;;;;;;;62.70;19.93;;;6.00;99.90;;;;;;5033845;28;20424;-73
2022/11/26 03:03:25;;;;;;;43.60;15.52;;;6.00;99.90;;;;;;5033318;28;20371;-74
2022/11/26 03:05:57;;;;;;;52.05;17.40;;;6.00;99.90;;;;;;5033404;28;20866;-73
2022/11/26 03:08:25;;;;;;;48.40;17.80;;;5.90;99.90;;;;;;5033373;28;20513;-73
2022/11/26 03:10:50;;;;;;;48.03;18.95;;;5.90;99.90;;;;;;5031814;28;20398;-75
2022/11/26 03:13:16;;;;;;;42.47;15.67;;;5.90;99.90;;;;;;5033268;28;20402;-72
2022/11/26 03:15:42;;;;;;;41.33;16.63;;;5.80;99.90;;;;;;5031985;28;20395;-74
2022/11/26 03:18:07;;;;;;;47.28;17.40;;;6.00;99.90;;;;;;5033200;28;20461;-74
2022/11/26 03:20:33;;;;;;;49.33;17.42;;;6.00;99.90;;;;;;5033784;28;20387;-75
2022/11/26 03:22:59;;;;;;;48.80;16.88;;;5.90;99.90;;;;;;5031744;28;20403;-74
2022/11/26 03:25:24;;;;;;;58.43;16.90;;;6.00;99.90;;;;;;5032878;28;20458;-74
2022/11/26 03:27:50;;;;;;;47.20;18.23;;;5.90;99.90;;;;;;5033023;28;20387;-72
2022/11/26 03:30:16;;;;;;;44.20;16.30;;;5.90;99.90;;;;;;5032952;28;20387;-73
2022/11/26 03:32:41;;;;;;;47.47;17.20;;;5.90;99.90;;;;;;5032668;28;20398;-74
2022/11/26 03:35:07;;;;;;;60.47;17.07;;;5.90;99.90;;;;;;5033182;28;20391;-74
2022/11/26 03:37:33;;;;;;;48.97;16.90;;;5.90;99.90;;;;;;5033147;28;20410;-73
2022/11/26 03:39:58;;;;;;;51.35;18.92;;;5.90;99.90;;;;;;5032459;28;20395;-74
2022/11/26 03:42:24;;;;;;;55.47;19.15;;;5.90;99.90;;;;;;5032987;28;20433;-74
2022/11/26 03:44:49;;;;;;;44.45;16.17;;;5.80;99.90;;;;;;5032917;28;20387;-74
2022/11/26 03:47:15;;;;;;;57.55;18.95;;;5.80;99.90;;;;;;5032776;28;20391;-73
2022/11/26 03:49:41;;;;;;;50.60;17.25;;;5.80;99.90;;;;;;5032168;28;20395;-74
2022/11/26 03:52:06;;;;;;;47.40;16.90;;;5.80;99.90;;;;;;5032721;28;20534;-75
2022/11/26 03:54:32;;;;;;;55.27;17.60;;;5.80;99.90;;;;;;5032565;28;20451;-73
2022/11/26 03:56:57;;;;;;;47.70;16.90;;;5.80;99.90;;;;;;5032390;28;20403;-73
2022/11/26 03:59:23;;;;;;;41.83;16.02;;;5.70;99.90;;;;;;5032371;28;20474;-74
2022/11/26 04:01:49;;;;;;;41.57;17.47;;;5.70;99.90;;;;;;5030931;28;20547;-73
2022/11/26 04:04:14;;;;;;;50.40;18.10;;;5.70;99.90;;;;;;5031835;28;20426;-73
2022/11/26 04:06:40;;;;;;;41.73;17.13;;;5.60;99.90;;;;;;5032033;28;20433;-74
2022/11/26 04:09:05;;;;;;;53.53;18.40;;;5.60;99.90;;;;;;5031785;28;20444;-74
2022/11/26 04:11:31;;;;;;;54.63;17.83;;;5.60;99.90;;;;;;5031887;28;20417;-73
2022/11/26 04:13:57;;;;;;;53.17;19.27;;;5.50;99.90;;;;;;5031111;28;20817;-73
2022/11/26 04:16:22;;;;;;;59.25;19.48;;;5.60;99.90;;;;;;5032587;28;20522;-74
2022/11/26 04:18:48;;;;;;;49.40;18.20;;;5.70;99.90;;;;;;5032182;28;20849;-74
2022/11/26 04:21:13;;;;;;;48.83;16.75;;;5.70;99.90;;;;;;5031716;28;20441;-74
2022/11/26 04:23:39;;;;;;;45.65;19.10;;;5.80;99.90;;;;;;5032138;28;20386;-72
2022/11/26 04:26:05;;;;;;;52.20;19.23;;;5.90;99.90;;;;;;5032897;28;20393;-75
2022/11/26 04:28:30;;;;;;;50.17;19.90;;;6.00;99.90;;;;;;5033218;28;20383;-73
2022/11/26 04:30:56;;;;;;;57.70;19.37;;;6.10;99.90;;;;;;5031852;28;20461;-73
2022/11/26 04:33:21;;;;;;;43.97;17.97;;;6.20;99.90;;;;;;5031809;28;21183;-74
2022/11/26 04:35:49;;;;;;;47.03;17.27;;;6.30;99.90;;;;;;5030323;28;20414;-73
2022/11/26 04:38:14;;;;;;;50.38;18.77;;;6.40;99.90;;;;;;5031560;28;20405;-74
2022/11/26 04:40:40;;;;;;;47.17;16.90;;;6.40;99.90;;;;;;5031736;28;20454;-74
2022/11/26 04:43:05;;;;;;;48.97;17.85;;;6.40;99.90;;;;;;5031537;28;20449;-74
2022/11/26 04:45:31;;;;;;;52.70;18.92;;;6.40;99.90;;;;;;5031411;28;20528;-73
2022/11/26 04:47:57;;;;;;;39.90;18.00;;;6.40;99.90;;;;;;5030098;28;20399;-74
2022/11/26 04:50:23;;;;;;;48.20;17.40;;;6.40;99.90;;;;;;5030971;28;20399;-73
2022/11/26 04:52:49;;;;;;;46.50;17.00;;;6.50;99.90;;;;;;5031115;28;20870;-72
2022/11/26 04:55:16;;;;;;;47.55;18.02;;;6.50;99.90;;;;;;5031158;28;20713;-73
2022/11/26 04:57:42;;;;;;;54.70;19.08;;;6.50;99.90;;;;;;5031574;28;20411;-75
2022/11/26 05:00:08;;;;;;;47.90;17.45;;;6.50;99.90;;;;;;5031525;28;20783;-74
2022/11/26 05:02:34;;;;;;;48.05;19.38;;;6.50;99.90;;;;;;5031671;28;20397;-73
2022/11/26 05:04:59;;;;;;;45.83;19.00;;;6.40;99.90;;;;;;5031071;28;20462;-74
2022/11/26 05:07:25;;;;;;;45.78;17.63;;;6.40;99.90;;;;;;5031205;28;20852;-73
2022/11/26 05:09:50;;;;;;;49.75;17.70;;;6.40;99.90;;;;;;5031859;28;20395;-73
2022/11/26 05:12:16;;;;;;;46.75;19.10;;;6.40;99.90;;;;;;5030830;28;20394;-73
2022/11/26 05:14:42;;;;;;;45.10;16.92;;;6.30;99.90;;;;;;5031855;28;20482;-74
2022/11/26 05:17:07;;;;;;;49.25;17.67;;;6.30;99.90;;;;;;5030916;28;20434;-72
2022/11/26 05:19:33;;;;;;;50.58;19.58;;;6.20;99.90;;;;;;5029766;28;20387;-74
2022/11/26 05:21:58;;;;;;;49.88;19.77;;;6.40;99.90;;;;;;5030523;28;20387;-75
2022/11/26 05:24:24;;;;;;;43.95;20.08;;;6.50;99.90;;;;;;5031038;28;20427;-74
2022/11/26 05:26:50;;;;;;;48.25;19.10;;;6.40;99.90;;;;;;5031718;28;20387;-74
2022/11/26 05:29:16;;;;;;;45.27;18.53;;;6.60;99.90;;;;;;5032451;28;20421;-74
2022/11/26 05:31:41;;;;;;;42.70;18.47;;;6.70;99.90;;;;;;5031898;28;20378;-74
2022/11/26 05:34:07;;;;;;;48.27;20.17;;;6.60;99.90;;;;;;5043567;28;20480;-74
2022/11/26 05:36:32;;;;;;;47.80;18.77;;;6.60;99.90;;;;;;5041109;28;20437;-73
2022/11/26 05:38:58;;;;;;;52.37;20.00;;;6.60;99.90;;;;;;5048568;28;20398;-75
2022/11/26 05:41:23;;;;;;;51.50;18.90;;;6.60;99.90;;;;;;5039360;28;20435;-72
2022/11/26 05:43:49;;;;;;;50.10;19.93;;;6.60;99.90;;;;;;5036530;28;20394;-73
2022/11/26 05:46:16;;;;;;;44.23;18.93;;;6.60;99.90;;;;;;5033432;28;20407;-74
2022/11/26 05:48:42;;;;;;;40.60;17.75;;;6.70;99.90;;;;;;5031413;28;20423;-74
2022/11/26 05:51:08;;;;;;;45.10;17.97;;;6.60;99.90;;;;;;5033405;28;20390;-74
2022/11/26 05:53:33;;;;;;;49.80;20.03;;;6.70;99.90;;;;;;5031407;28;20406;-74
2022/11/26 05:55:59;;;;;;;42.87;20.00;;;6.60;99.90;;;;;;5030789;28;20391;-74
2022/11/26 05:58:24;;;;;;;45.17;18.80;;;6.60;99.90;;;;;;5030799;28;20482;-74
2022/11/26 06:00:50;;;;;;;46.50;19.40;;;6.50;99.90;;;;;;5029676;28;20453;-75
2022/11/26 06:03:16;;;;;;;50.30;18.60;;;6.30;99.90;;;;;;5031014;28;20444;-75
2022/11/26 06:05:41;;;;;;;44.92;18.80;;;6.30;99.90;;;;;;5031003;28;20469;-74
2022/11/26 06:08:07;;;;;;;43.80;18.75;;;6.20;99.90;;;;;;5030808;28;20411;-73
2022/11/26 06:10:32;;;;;;;42.30;18.90;;;6.10;99.90;;;;;;5030981;28;20425;-73
2022/11/26 06:12:58;;;;;;;50.92;19.48;;;6.00;99.90;;;;;;5033902;28;20994;-73
2022/11/26 06:15:23;;;;;;;52.92;17.90;;;5.90;99.90;;;;;;5035874;28;20918;-74
2022/11/26 06:17:49;;;;;;;44.75;17.50;;;5.90;99.90;;;;;;5034701;28;20929;-75
2022/11/26 06:20:15;;;;;;;50.72;19.90;;;5.80;99.90;;;;;;5034903;28;20395;-74
2022/11/26 06:22:42;;;;;;;41.50;19.17;;;5.80;99.90;;;;;;5033597;28;20387;-73
2022/11/26 06:25:10;;;;;;;37.42;17.40;;;5.70;99.90;;;;;;5038032;28;20387;-74
2022/11/26 06:27:36;;;;;;;48.53;17.70;;;5.70;99.90;;;;;;5044017;28;20414;-73
2022/11/26 06:30:07;;;;;;;48.47;18.45;;;5.60;99.90;;;;;;5037904;28;20383;-74
2022/11/26 06:32:32;;;;;;;45.05;17.77;;;5.60;99.90;;;;;;5034652;28;20473;-74
2022/11/26 06:34:58;;;;;;;39.95;17.60;;;5.60;99.90;;;;;;5034771;28;20868;-73
2022/11/26 06:37:24;;;;;;;45.17;18.98;;;5.70;99.90;;;;;;5035052;28;20395;-73
2022/11/26 06:39:50;;;;;;;41.20;18.35;;;5.60;99.90;;;;;;5034296;28;20394;-73
2022/11/26 06:42:16;;;;;;;38.92;17.70;;;5.50;99.90;;;;;;5032650;28;20391;-73
2022/11/26 06:44:42;;;;;;;37.67;17.63;;;5.60;99.90;;;;;;5033659;28;20474;-74
2022/11/26 06:47:14;;;;;;;42.67;17.90;;;5.60;99.90;;;;;;5033937;28;20466;-74
2022/11/26 06:49:40;;;;;;;41.67;17.70;;;5.60;99.90;;;;;;5033941;28;20396;-74
2022/11/26 06:52:06;;;;;;;42.17;18.05;;;5.60;99.90;;;;;;5033716;28;20751;-75
2022/11/26 06:54:31;;;;;;;45.95;18.88;;;5.50;99.90;;;;;;5033834;28;20446;-74
2022/11/26 06:56:57;;;;;;;43.43;18.47;;;5.60;99.90;;;;;;5033735;28;20410;-75
2022/11/26 06:59:23;;;;;;;37.30;17.10;;;5.60;99.90;;;;;;5034135;28;20383;-73
2022/11/26 07:01:48;;;;;;;43.00;17.70;;;5.50;99.90;;;;;;5033865;28;20375;-75
2022/11/26 07:04:14;;;;;;;38.57;18.27;;;5.50;99.90;;;;;;5034761;28;20518;-75
2022/11/26 07:06:40;;;;;;;43.03;18.43;;;5.50;99.90;;;;;;5033617;28;20397;-74
2022/11/26 07:09:09;;;;;;;35.60;16.40;;;5.50;99.90;;;;;;5033707;28;20469;-73
2022/11/26 07:11:36;;;;;;;40.63;16.75;;;5.50;99.90;;;;;;5032355;28;20470;-74
2022/11/26 07:14:01;;;;;;;40.90;16.90;;;5.50;99.90;;;;;;5033437;28;20391;-73
2022/11/26 07:16:27;;;;;;;34.83;16.50;;;5.50;99.90;;;;;;5033085;28;20379;-75
2022/11/26 07:18:55;;;;;;;38.20;17.63;;;5.50;99.90;;;;;;5033024;28;20847;-74
2022/11/26 07:21:21;;;;;;;38.70;16.90;;;5.60;99.90;;;;;;5033356;28;20471;-73
2022/11/26 07:23:48;;;;;;;36.38;16.70;;;5.60;99.90;;;;;;5032375;28;20386;-72
2022/11/26 07:26:15;;;;;;;42.92;17.20;;;5.60;99.90;;;;;;5033904;28;21083;-74
2022/11/26 07:28:41;;;;;;;39.22;16.23;;;5.60;99.90;;;;;;5035002;28;20395;-75
2022/11/26 07:31:09;;;;;;;40.50;16.90;;;5.60;99.90;;;;;;5036376;28;20375;-75
2022/11/26 07:33:35;;;;;;;35.25;15.27;;;5.60;99.90;;;;;;5033781;28;20398;-74
2022/11/26 07:36:02;;;;;;;34.85;15.52;;;5.60;99.90;;;;;;5033369;28;20383;-74
2022/11/26 07:38:28;;;;;;;36.58;17.38;;;5.60;99.90;;;;;;5034398;28;20397;-74
2022/11/26 07:41:01;;;;;;;37.65;16.88;;;5.60;99.90;;;;;;5034568;28;20387;-74
2022/11/26 07:43:26;;;;;;;40.22;15.88;;;5.70;99.90;;;;;;5033827;28;20713;-73
2022/11/26 07:45:52;;;;;;;36.67;16.60;;;5.70;99.90;;;;;;5032555;28;20375;-73
2022/11/26 07:48:17;;;;;;;34.00;16.20;;;5.70;99.90;;;;;;5034428;28;20383;-75
2022/11/26 07:50:44;;;;;;;37.57;16.57;;;5.70;99.90;;;;;;5033519;28;20395;-75
2022/11/26 07:53:10;;;;;;;38.50;16.33;;;5.80;99.90;;;;;;5034778;28;20468;-76
2022/11/26 07:55:37;;;;;;;31.15;15.18;;;5.80;99.90;;;;;;5034683;28;20872;-74
2022/11/26 07:58:03;;;;;;;33.90;15.60;;;5.80;99.90;;;;;;5034347;28;20399;-74
2022/11/26 08:00:32;;;;;;;32.63;15.98;;;5.90;99.90;;;;;;5033436;28;20394;-75
2022/11/26 08:02:58;;;;;;;39.00;16.23;;;5.90;99.90;;;;;;5034217;28;20793;-73
2022/11/26 08:05:24;;;;;;;32.42;15.32;;;6.00;99.90;;;;;;5034910;28;20384;-74
2022/11/26 08:07:49;;;;;;;33.85;15.10;;;6.00;99.90;;;;;;5033527;28;20752;-74
2022/11/26 08:10:15;;;;;;;33.50;14.63;;;6.00;99.90;;;;;;5034103;28;20383;-73
2022/11/26 08:12:40;;;;;;;28.00;14.27;;;5.90;99.90;;;;;;5034215;28;20445;-74
2022/11/26 08:15:06;;;;;;;33.10;15.10;;;6.00;99.90;;;;;;5034350;28;20394;-73
2022/11/26 08:17:32;;;;;;;38.88;15.40;;;6.10;99.90;;;;;;5034146;28;20433;-75
2022/11/26 08:19:58;;;;;;;31.67;15.13;;;6.00;99.90;;;;;;5033493;28;20383;-73
2022/11/26 08:22:23;;;;;;;33.37;15.33;;;6.00;99.90;;;;;;5038294;28;20379;-74
2022/11/26 08:24:49;;;;;;;32.67;14.20;;;6.00;99.90;;;;;;5041905;28;20521;-74
2022/11/26 08:27:15;;;;;;;36.25;14.00;;;6.10;99.90;;;;;;5045829;28;20790;-74
2022/11/26 08:29:40;;;;;;;42.60;14.80;;;6.10;99.90;;;;;;5046491;28;20391;-74
2022/11/26 08:32:06;;;;;;;32.00;14.32;;;6.10;99.90;;;;;;5041214;28;20440;-74
2022/11/26 08:34:32;;;;;;;35.85;14.88;;;6.20;99.90;;;;;;5049920;28;20398;-74
2022/11/26 08:36:58;;;;;;;31.07;13.47;;;6.30;99.90;;;;;;5047992;28;20485;-73
2022/11/26 08:39:23;;;;;;;23.70;12.80;;;6.40;99.90;;;;;;5033995;28;20390;-75
2022/11/26 08:41:49;;;;;;;32.60;13.95;;;6.40;99.90;;;;;;5032859;28;20387;-74
2022/11/26 08:44:15;;;;;;;28.10;14.20;;;6.40;99.90;;;;;;5033175;28;20911;-74
2022/11/26 08:46:41;;;;;;;27.08;13.80;;;6.50;99.90;;;;;;5032253;28;20387;-73
2022/11/26 08:49:10;;;;;;;28.70;13.45;;;6.60;99.90;;;;;;5042935;23;20402;-72
2022/11/26 08:51:36;;;;;;;27.58;13.18;;;6.70;99.90;;;;;;5009006;28;20832;-72
2022/11/26 08:54:02;;;;;;;31.67;13.10;;;6.80;99.90;;;;;;5011026;28;20448;-71
2022/11/26 08:56:28;;;;;;;22.52;12.05;;;6.90;99.90;;;;;;5011401;28;20377;-72
2022/11/26 08:58:53;;;;;;;26.42;12.27;;;7.00;99.90;;;;;;5011435;28;20877;-72
2022/11/26 09:01:22;;;;;;;29.23;13.05;;;7.10;99.90;;;;;;5011265;28;20922;-73
2022/11/26 09:03:49;;;;;;;27.20;12.73;;;7.20;99.90;;;;;;5026247;28;20384;-72
2022/11/26 09:06:15;;;;;;;26.45;12.02;;;7.30;99.90;;;;;;5026286;28;20396;-73
2022/11/26 09:09:11;;;;;;;24.48;11.88;;;7.30;99.90;;;;;;5010821;28;20535;-71
2022/11/26 09:11:29;;;;;;;25.75;11.75;;;7.30;99.90;;;;;;5010565;28;20479;-72
2022/11/26 09:13:57;;;;;;;29.35;12.75;;;7.40;99.90;;;;;;5011285;28;20415;-72
2022/11/26 09:16:23;;;;;;;26.92;12.20;;;7.50;99.90;;;;;;5011540;28;20435;-72
2022/11/26 09:18:50;;;;;;;27.20;12.82;;;7.60;99.90;;;;;;5012490;28;20735;-72
2022/11/26 09:21:15;;;;;;;30.60;11.93;;;7.60;99.90;;;;;;5011231;28;20385;-72
2022/11/26 09:23:41;;;;;;;27.15;12.57;;;7.60;99.20;;;;;;5011099;28;20761;-72
2022/11/26 09:26:06;;;;;;;31.85;12.65;;;7.60;99.30;;;;;;5010778;28;20385;-74
2022/11/26 09:28:32;;;;;;;28.90;13.27;;;7.60;99.90;;;;;;5009524;28;20471;-72
2022/11/26 09:30:59;;;;;;;33.95;12.50;;;7.60;97.60;;;;;;5010345;28;20552;-72
2022/11/26 09:33:24;;;;;;;20.85;11.95;;;7.60;99.90;;;;;;5010800;28;20396;-72
2022/11/26 09:35:50;;;;;;;28.17;11.57;;;7.70;98.60;;;;;;5010807;28;20384;-71
2022/11/26 09:38:16;;;;;;;32.57;13.40;;;7.80;97.10;;;;;;5010867;28;20436;-70
2022/11/26 09:40:55;;;;;;;28.40;12.80;;;7.90;98.20;;;;;;5010797;28;20916;-72
2022/11/26 09:43:40;;;;;;;25.13;11.65;;;8.00;96.20;;;;;;5010445;28;20397;-72
2022/11/26 09:46:08;;;;;;;26.85;11.80;;;8.00;95.00;;;;;;5011295;28;20385;-72
2022/11/26 09:48:36;;;;;;;28.73;11.68;;;8.10;92.20;;;;;;5014381;28;20862;-72
2022/11/26 09:51:12;;;;;;;25.83;12.10;;;8.10;93.80;;;;;;5013807;28;20396;-72
2022/11/26 09:53:43;;;;;;;27.20;11.93;;;8.20;92.90;;;;;;5014390;28;20388;-72
2022/11/26 09:56:15;;;;;;;26.13;11.25;;;8.20;92.70;;;;;;5013771;28;20393;-72
2022/11/26 09:59:01;;;;;;;26.33;10.90;;;8.30;91.10;;;;;;5029125;28;20997;-70
2022/11/26 10:01:30;;;;;;;27.02;11.70;;;8.40;85.70;;;;;;5014115;28;20393;-72
2022/11/26 10:03:56;;;;;;;30.88;11.80;;;8.50;84.50;;;;;;5014097;28;20384;-73
2022/11/26 10:06:55;;;;;;;24.03;12.03;;;8.50;83.30;;;;;;5014373;28;20782;-73
2022/11/26 10:09:44;;;;;;;25.07;11.37;;;8.60;83.30;;;;;;5014518;28;20384;-73
2022/11/26 10:12:27;;;;;;;24.63;10.98;;;8.60;83.10;;;;;;5013661;28;20381;-72
2022/11/26 10:15:16;;;;;;;26.67;11.25;;;8.70;81.20;;;;;;5014439;28;20385;-73
2022/11/26 10:18:15;;;;;;;25.33;12.05;;;8.80;82.90;;;;;;5004259;28;20409;-72
2022/11/26 10:21:01;;;;;;;29.85;11.15;;;8.90;83.60;;;;;;5023012;28;20385;-72
2022/11/26 10:23:44;;;;;;;29.75;12.88;;;9.00;77.40;;;;;;5028315;28;20400;-73
2022/11/26 10:26:28;;;;;;;29.60;11.55;;;9.20;78.90;;;;;;5020004;28;20377;-71
2022/11/26 10:29:31;;;;;;;25.80;11.23;;;9.20;76.00;;;;;;5013792;28;20399;-73
2022/11/26 10:32:00;;;;;;;25.80;12.85;;;9.30;75.60;;;;;;5013869;28;20472;-72
2022/11/26 10:34:38;;;;;;;24.98;10.82;;;9.40;76.00;;;;;;5014145;28;20450;-72
2022/11/26 10:37:04;;;;;;;24.08;10.35;;;9.50;73.90;;;;;;5013595;28;20408;-72
2022/11/26 10:39:29;;;;;;;29.33;11.20;;;9.60;73.00;;;;;;5013559;28;20400;-72
2022/11/26 10:41:55;;;;;;;27.08;11.10;;;9.70;72.50;;;;;;5013066;28;20475;-72
2022/11/26 10:44:38;;;;;;;26.05;10.80;;;9.80;71.40;;;;;;5013454;28;20416;-72
2022/11/26 10:47:25;;;;;;;27.98;12.10;;;9.90;67.60;;;;;;5012081;28;20404;-71
2022/11/26 10:50:14;;;;;;;24.40;11.65;;;9.90;67.50;;;;;;5012752;28;20401;-72
2022/11/26 10:52:39;;;;;;;26.00;11.05;;;9.90;67.80;;;;;;5006967;28;20416;-72
2022/11/26 10:55:15;;;;;;;30.58;11.20;;;10.00;67.30;;;;;;5013849;28;20412;-73
2022/11/26 10:57:46;;;;;;;25.70;11.17;;;10.20;67.40;;;;;;5009720;28;20512;-71
2022/11/26 11:00:32;;;;;;;27.30;11.52;;;10.30;64.50;;;;;;5023967;28;20989;-71
2022/11/26 11:02:59;;;;;;;24.50;11.05;;;10.30;64.10;;;;;;5010146;28;20373;-71
2022/11/26 11:05:24;;;;;;;29.88;11.20;;;10.40;62.80;;;;;;5010092;28;20388;-72
2022/11/26 11:07:52;;;;;;;26.63;12.10;;;10.30;64.00;;;;;;5020654;28;20420;-72
2022/11/26 11:10:21;;;;;;;26.25;12.15;;;10.30;64.60;;;;;;4996717;28;20499;-72
2022/11/26 11:12:59;;;;;;;29.10;11.10;;;10.40;63.00;;;;;;5009102;28;20396;-73
2022/11/26 11:15:27;;;;;;;24.48;11.43;;;10.40;61.70;;;;;;5008183;28;21186;-72
2022/11/26 11:17:54;;;;;;;30.35;11.40;;;10.40;61.00;;;;;;5009746;28;20969;-72
2022/11/26 11:20:57;;;;;;;31.60;11.63;;;10.40;61.10;;;;;;5010098;28;20755;-72
2022/11/26 11:23:29;;;;;;;24.55;11.00;;;10.40;61.40;;;;;;5008161;28;20480;-72
2022/11/26 11:26:02;;;;;;;28.45;11.73;;;10.50;61.10;;;;;;5009554;28;20448;-73
2022/11/26 11:28:30;;;;;;;28.80;11.05;;;10.50;62.10;;;;;;5009608;28;20397;-74
2022/11/26 11:31:24;;;;;;;24.60;10.95;;;10.50;61.70;;;;;;5008748;28;20902;-73
2022/11/26 11:33:51;;;;;;;27.38;11.57;;;10.60;62.20;;;;;;5011010;28;20447;-73
2022/11/26 11:36:19;;;;;;;21.73;11.03;;;10.70;61.10;;;;;;5010872;28;20389;-73
2022/11/26 11:38:53;;;;;;;27.50;12.27;;;10.70;60.60;;;;;;5013847;28;20406;-73
2022/11/26 11:41:41;;;;;;;25.10;11.40;;;10.80;60.80;;;;;;4991306;28;20943;-74
2022/11/26 11:44:17;;;;;;;23.67;10.87;;;10.80;57.50;;;;;;4991957;28;20394;-74
2022/11/26 11:46:53;;;;;;;30.80;11.10;;;10.80;58.10;;;;;;4992056;28;20387;-74
2022/11/26 11:49:19;;;;;;;21.60;10.20;;;10.70;58.50;;;;;;5010922;28;20416;-74
2022/11/26 11:52:01;;;;;;;22.35;10.75;;;10.70;58.40;;;;;;5014044;28;20401;-75
2022/11/26 11:54:45;;;;;;;23.80;10.30;;;10.80;58.90;;;;;;5012189;28;21247;-72
2022/11/26 11:57:31;;;;;;;20.35;9.65;;;10.80;57.80;;;;;;5011814;28;20908;-73
2022/11/26 12:00:31;;;;;;;22.55;10.20;;;10.80;57.20;;;;;;5009347;28;20405;-73
2022/11/26 12:03:24;;;;;;;26.67;11.32;;;10.80;55.90;;;;;;5008174;28;20443;-73
2022/11/26 12:05:55;;;;;;;23.50;10.40;;;10.70;56.50;;;;;;5009171;28;20433;-73
2022/11/26 12:08:35;;;;;;;23.33;10.30;;;10.80;56.80;;;;;;5009891;28;20391;-73
2022/11/26 12:11:10;;;;;;;26.88;11.32;;;10.80;57.10;;;;;;5009072;28;20403;-72
2022/11/26 12:13:42;;;;;;;25.20;11.07;;;10.80;58.00;;;;;;5009768;28;20435;-71
2022/11/26 12:16:13;;;;;;;23.08;10.68;;;10.90;57.00;;;;;;5008080;28;20726;-73
2022/11/26 12:18:50;;;;;;;27.05;10.52;;;10.90;56.10;;;;;;5009913;28;20409;-73
2022/11/26 12:21:24;;;;;;;21.90;10.07;;;11.00;54.80;;;;;;5008925;28;20397;-72
2022/11/26 12:23:58;;;;;;;22.52;10.65;;;11.10;54.80;;;;;;5009232;28;20393;-72
2022/11/26 12:26:45;;;;;;;23.63;9.80;;;11.10;54.30;;;;;;5007723;28;20392;-71
2022/11/26 12:29:34;;;;;;;26.83;10.90;;;11.20;52.00;;;;;;5009371;28;20392;-72
2022/11/26 12:32:15;;;;;;;24.50;10.40;;;11.20;53.30;;;;;;5009380;28;20523;-72
2022/11/26 12:34:51;;;;;;;26.27;11.00;;;11.20;53.90;;;;;;5009296;28;20493;-73
2022/11/26 12:37:29;;;;;;;24.00;10.32;;;11.30;54.90;;;;;;5007278;28;20404;-72
2022/11/26 12:40:07;;;;;;;24.73;10.93;;;11.30;52.70;;;;;;5008892;28;20455;-71
2022/11/26 12:42:43;;;;;;;32.63;12.60;;;11.30;52.60;;;;;;5020485;28;20787;-72
2022/11/26 12:45:24;;;;;;;20.75;10.15;;;11.40;53.30;;;;;;5010163;28;20412;-72
2022/11/26 12:47:58;;;;;;;25.73;10.25;;;11.40;52.80;;;;;;5008544;28;20397;-72
2022/11/26 12:50:43;;;;;;;23.67;10.60;;;11.40;52.10;;;;;;5007845;28;20414;-72